Time;durP1;ratioP1;P1;durP2;ratioP2;P2;SDS_P1;SDS_P2;PMS_P1;PMS_P2;Temp;Humidity;BMP_temperature;BMP_pressure;BME280_temperature;BME280_humidity;BME280_pressure;Samples;Min_cycle;Max_cycle;Signal;HPM_P1;HPM_P2
2021/04/01 05:31:13;;;;;;;;;;;;;;;6.82;80.21;100167.41;1689389;81;27458;-51
2021/04/01 05:33:46;;;;;;;75.42;47.45;;;;;;;6.96;80.51;100160.79;1675554;85;25574;-52
2021/04/01 05:36:10;;;;;;;79.27;48.80;;;;;;;7.06;80.62;100155.28;1685998;84;26705;-51
2021/04/01 05:38:38;;;;;;;87.40;51.92;;;;;;;7.19;80.41;100148.96;1687199;85;25507;-56
2021/04/01 05:41:09;;;;;;;85.47;53.95;;;;;;;7.26;80.69;100149.39;1687554;85;25546;-54
2021/04/01 05:43:42;;;;;;;90.83;52.67;;;;;;;7.37;81.07;100147.36;1687311;85;25382;-52
2021/04/01 05:54:55;;;;;;;96.95;55.70;;;;;;;7.95;81.49;100134.91;1871643;76;25261;-50
2021/04/01 06:04:39;;;;;;;88.05;55.00;;;;;;;8.72;81.79;100135.44;1826261;78;25502;-51
2021/04/01 06:07:13;;;;;;;90.38;55.75;;;;;;;8.98;81.90;100137.85;1794485;78;25489;-53
2021/04/01 06:09:45;;;;;;;88.95;55.30;;;;;;;9.24;81.86;100132.47;1825613;78;25710;-52
2021/04/01 06:12:12;;;;;;;88.97;56.05;;;;;;;9.52;81.78;100134.55;1826200;78;25487;-55
2021/04/01 06:15:12;;;;;;;90.85;57.58;;;;;;;9.80;81.55;100131.16;1826289;78;25341;-54
2021/04/01 06:17:47;;;;;;;82.25;51.80;;;;;;;10.06;81.15;100128.64;1826325;78;25451;-52
2021/04/01 06:20:15;;;;;;;80.53;51.05;;;;;;;10.34;80.39;100129.84;1826307;78;25477;-51
2021/04/01 06:22:44;;;;;;;79.60;50.85;;;;;;;10.52;79.78;100136.14;1826342;78;26619;-51
2021/04/01 06:25:15;;;;;;;79.03;50.70;;;;;;;10.70;79.27;100132.14;1826205;78;25500;-50
2021/04/01 06:27:56;;;;;;;79.82;49.63;;;;;;;10.92;79.21;100133.95;1826243;78;25334;-49
2021/04/01 06:30:26;;;;;;;84.85;50.50;;;;;;;11.18;79.16;100121.23;1826174;78;25399;-50
2021/04/01 06:33:06;;;;;;;73.33;47.30;;;;;;;11.47;78.73;100123.88;1826370;78;25278;-52
2021/04/01 06:38:30;;;;;;;71.22;48.17;;;;;;;12.12;77.73;100129.41;1849628;76;34927;-53
2021/04/01 06:41:04;;;;;;;75.22;48.35;;;;;;;12.29;77.48;100123.14;1819542;78;25422;-50
2021/04/01 06:44:00;;;;;;;71.07;45.43;;;;;;;12.50;76.65;100119.95;1819677;78;25884;-52
2021/04/01 06:46:30;;;;;;;74.35;45.45;;;;;;;12.77;76.51;100116.56;1813793;78;25726;-56
2021/04/01 06:51:55;;;;;;;67.15;45.92;;;;;;;13.47;75.88;100117.47;1806017;78;25462;-52
2021/04/01 06:54:29;;;;;;;66.47;43.90;;;;;;;13.74;75.36;100105.24;1800526;78;25522;-54
2021/04/01 08:56:41;;;;;;;42.65;26.07;;;;;;;26.39;41.45;99996.73;1864919;75;25370;-57
2021/04/01 08:59:43;;;;;;;38.00;26.65;;;;;;;26.16;40.96;99988.44;1863657;77;25327;-57
2021/04/01 09:02:16;;;;;;;42.67;26.77;;;;;;;26.13;40.67;99982.35;1863569;77;25856;-55
2021/04/01 09:04:50;;;;;;;39.70;24.20;;;;;;;25.99;39.94;99977.85;1862791;77;25531;-55
2021/04/01 09:07:30;;;;;;;42.15;26.25;;;;;;;25.82;39.27;99978.30;1863606;77;25575;-54
2021/04/01 09:10:04;;;;;;;38.13;22.73;;;;;;;25.64;39.36;99971.66;1863600;77;25295;-54
2021/04/01 09:12:39;;;;;;;37.95;24.95;;;;;;;25.82;40.25;99969.99;1863364;77;25440;-56
2021/04/01 09:15:14;;;;;;;40.55;24.18;;;;;;;25.99;36.92;99967.55;1862016;77;25808;-55
2021/04/01 09:17:39;;;;;;;40.08;25.12;;;;;;;25.57;37.60;99974.54;1862839;77;25378;-55
2021/04/01 09:20:19;;;;;;;41.25;24.30;;;;;;;25.22;38.14;99969.70;1863559;77;25444;-55
2021/04/01 09:22:56;;;;;;;44.08;25.97;;;;;;;25.05;39.06;99962.61;1863466;76;25478;-55
2021/04/01 09:25:39;;;;;;;37.48;24.05;;;;;;;25.09;39.75;99957.80;1863639;76;25421;-53
2021/04/01 09:28:09;;;;;;;42.30;25.92;;;;;;;25.29;39.54;99955.17;1858506;77;25941;-56
2021/04/01 09:30:37;;;;;;;39.00;23.47;;;;;;;25.53;39.74;99958.77;1834421;77;25544;-54
2021/04/01 09:36:11;;;;;;;38.03;23.83;;;;;;;25.93;38.76;99949.02;1854236;75;32654;-55
2021/04/01 09:38:42;;;;;;;40.58;24.55;;;;;;;26.15;38.15;99949.45;1836724;77;25750;-56
2021/04/01 09:41:12;;;;;;;39.65;25.05;;;;;;;26.12;37.34;99940.01;1826071;78;25879;-57
2021/04/01 09:43:49;;;;;;;41.40;25.30;;;;;;;26.00;36.32;99940.03;1824361;78;25458;-57
2021/04/01 09:46:20;;;;;;;32.90;20.02;;;;;;;25.84;36.68;99932.95;1826255;78;25412;-56
2021/04/01 09:49:09;;;;;;;34.10;20.17;;;;;;;25.87;38.29;99931.50;1826179;78;25527;-57
2021/04/01 09:51:36;;;;;;;;;;;;;;;26.08;37.30;99934.54;1829155;78;25310;-58
2021/04/01 09:54:03;;;;;;;33.65;19.70;;;;;;;26.36;37.80;99932.42;1826225;78;25892;-56
2021/04/01 09:56:33;;;;;;;31.57;17.87;;;;;;;26.52;37.02;99933.70;1826194;78;25425;-56
2021/04/01 09:59:00;;;;;;;32.95;17.98;;;;;;;26.39;35.78;99921.07;1826341;78;25256;-57
2021/04/01 10:01:39;;;;;;;29.23;15.95;;;;;;;26.30;36.04;99925.80;1826239;78;25267;-56
2021/04/01 10:04:18;;;;;;;33.78;16.02;;;;;;;26.09;36.01;99913.91;1825997;78;25500;-53
2021/04/01 10:06:50;;;;;;;29.57;15.78;;;;;;;26.22;36.34;99918.23;1826114;78;25793;-56
2021/04/01 10:09:24;;;;;;;26.23;14.63;;;;;;;26.50;35.25;99905.02;1826212;78;25241;-56
2021/04/01 10:12:00;;;;;;;29.52;15.93;;;;;;;26.35;35.20;99904.52;1825533;78;25484;-57
2021/04/01 10:14:29;;;;;;;31.52;16.70;;;;;;;26.30;34.75;99895.31;1826152;78;25429;-56
2021/04/01 10:17:03;;;;;;;32.00;16.17;;;;;;;26.28;33.68;99898.50;1826401;78;25268;-56
2021/04/01 10:19:43;;;;;;;28.85;15.53;;;;;;;26.27;34.22;99900.31;1826084;78;25747;-57
2021/04/01 10:22:32;;;;;;;28.95;16.55;;;;;;;26.26;35.01;99898.16;1826147;78;25480;-57
2021/04/01 10:30:23;;;;;;;31.40;16.32;;;;;;;25.61;34.12;99887.45;1826516;78;25456;-57
2021/04/01 10:32:54;;;;;;;21.73;13.48;;;;;;;25.77;35.11;99888.77;1826034;78;25866;-56
2021/04/01 10:35:28;;;;;;;24.43;13.53;;;;;;;25.73;34.13;99880.52;1829658;78;25519;-57
2021/04/01 10:37:58;;;;;;;21.82;11.95;;;;;;;25.68;34.40;99873.47;1832459;77;25414;-54
2021/04/01 10:40:27;;;;;;;20.23;12.80;;;;;;;25.93;34.73;99872.22;1832081;78;25484;-56
2021/04/01 10:43:10;;;;;;;22.73;11.38;;;;;;;25.89;32.21;99867.36;1832424;78;25267;-55
2021/04/01 10:45:43;;;;;;;25.52;12.10;;;;;;;25.82;32.24;99874.43;1832266;78;25703;-56
2021/04/01 10:48:36;;;;;;;25.37;12.70;;;;;;;25.79;33.34;99871.89;1831504;78;25402;-56
2021/04/01 10:51:07;;;;;;;24.47;12.00;;;;;;;25.71;32.67;99849.09;1815926;78;25325;-55
2021/04/01 10:53:42;;;;;;;25.70;12.53;;;;;;;25.52;32.25;99845.66;1831622;78;25575;-54
2021/04/01 10:56:14;;;;;;;21.85;12.20;;;;;;;25.33;32.12;99850.72;1831555;78;25583;-53
2021/04/01 10:58:55;;;;;;;25.00;12.00;;;;;;;25.31;33.55;99844.05;1832930;77;25682;-56
2021/04/01 11:01:36;;;;;;;25.25;12.65;;;;;;;25.58;33.66;99843.98;1840779;77;25498;-56
2021/04/01 11:04:05;;;;;;;21.02;11.97;;;;;;;26.06;34.59;99841.33;1833302;77;25741;-55
2021/04/01 11:06:35;;;;;;;24.82;12.65;;;;;;;26.52;32.61;99839.42;1830432;77;25593;-56
2021/04/01 11:09:04;;;;;;;29.92;14.38;;;;;;;26.56;32.67;99841.50;1831087;78;25639;-56
2021/04/01 11:14:26;;;;;;;27.00;13.68;;;;;;;26.04;31.11;99837.44;1830698;78;25571;-56
2021/04/01 11:16:54;;;;;;;24.67;12.68;;;;;;;25.68;30.55;99829.77;1830932;78;25649;-55
2021/04/01 11:19:23;;;;;;;26.85;12.88;;;;;;;25.43;32.12;99825.45;1831324;78;25489;-55
2021/04/01 11:21:52;;;;;;;24.37;13.40;;;;;;;25.47;32.08;99822.61;1815629;78;25485;-56
2021/04/01 11:24:31;;;;;;;24.98;12.25;;;;;;;25.52;31.61;99817.98;1831818;78;25965;-56
2021/04/01 11:27:11;;;;;;;;;;;;;;;25.50;32.04;99822.55;1824761;77;25705;-52
2021/04/01 11:29:51;;;;;;;22.10;12.10;;;;;;;25.48;31.65;99822.81;1820177;77;25445;-53
2021/04/01 11:32:31;;;;;;;22.30;11.95;;;;;;;25.40;31.75;99827.67;1756111;81;25600;-57
2021/04/01 11:35:03;;;;;;;23.38;12.37;;;;;;;25.50;30.53;99821.16;1716577;82;25614;-55
2021/04/01 11:37:35;;;;;;;21.42;11.43;;;;;;;25.43;30.93;99816.38;1732245;81;25968;-55
2021/04/01 11:40:08;;;;;;;23.70;10.98;;;;;;;25.34;30.80;99818.30;1714218;82;25298;-56
2021/04/01 11:42:35;;;;;;;18.70;10.48;;;;;;;25.22;29.12;99814.12;1728056;81;26371;-56
2021/04/01 11:45:07;;;;;;;21.02;10.50;;;;;;;25.18;30.63;99809.23;1733217;81;25606;-56
2021/04/01 11:47:36;;;;;;;19.60;10.70;;;;;;;25.38;29.72;99814.09;1736228;81;25725;-54
2021/04/01 11:50:05;;;;;;;19.67;10.13;;;;;;;25.32;29.85;99807.66;1700709;83;25713;-56
2021/04/01 11:52:34;;;;;;;17.20;9.45;;;;;;;25.15;28.38;99801.80;1721371;82;25471;-57
2021/04/01 11:55:13;;;;;;;22.42;10.70;;;;;;;24.80;27.55;99803.30;1694110;84;25402;-57
2021/04/01 11:57:45;;;;;;;18.80;11.78;;;;;;;24.51;28.55;99802.13;1728189;83;26206;-56
2021/04/01 12:05:36;;;;;;;18.95;10.70;;;;;;;23.79;30.63;99793.33;1834299;75;25329;-54
2021/04/01 12:08:03;;;;;;;21.57;12.37;;;;;;;23.76;31.53;99796.30;1802644;79;25490;-57
2021/04/01 12:10:31;;;;;;;27.70;13.30;;;;;;;23.93;31.63;99789.64;1805516;78;25678;-56
2021/04/01 12:13:02;;;;;;;20.20;12.78;;;;;;;24.01;30.52;99790.52;1796313;79;25438;-56
2021/04/01 12:15:36;;;;;;;20.97;12.23;;;;;;;23.88;31.27;99790.09;1809141;78;25245;-55
2021/04/01 12:18:07;;;;;;;20.90;12.37;;;;;;;23.81;31.64;99786.78;1819581;78;25353;-56
2021/04/01 12:20:37;;;;;;;26.37;13.88;;;;;;;23.88;31.85;99785.95;1815155;78;25615;-54
2021/04/01 12:23:21;;;;;;;21.33;12.65;;;;;;;23.93;32.14;99784.12;1799554;78;25753;-55
2021/04/01 12:26:03;;;;;;;25.68;14.60;;;;;;;23.88;31.92;99781.81;1786836;80;25584;-55
2021/04/01 12:28:31;;;;;;;25.25;14.18;;;;;;;23.92;32.05;99778.41;1787337;80;25258;-56
2021/04/01 12:30:59;;;;;;;25.30;13.90;;;;;;;23.86;31.71;99779.46;1786750;80;25550;-56
2021/04/01 12:33:29;;;;;;;27.13;14.07;;;;;;;23.71;32.01;99770.52;1786977;80;25532;-56
2021/04/01 12:36:04;;;;;;;24.85;14.23;;;;;;;23.67;32.46;99767.80;1786111;80;25699;-57
2021/04/01 12:38:39;;;;;;;24.98;13.90;;;;;;;23.83;32.45;99759.57;1786289;80;25562;-54
2021/04/01 12:41:12;;;;;;;23.30;13.40;;;;;;;23.74;31.58;99757.27;1786298;80;25599;-56
2021/04/01 12:43:47;;;;;;;27.80;13.83;;;;;;;23.59;32.59;99753.11;1797351;77;25687;-55
2021/04/01 12:47:04;;;;;;;22.00;12.98;;;;;;;23.69;33.19;99755.74;1844428;77;25495;-56
2021/04/01 12:49:34;;;;;;;28.67;15.18;;;;;;;23.90;33.13;99753.95;1832764;77;25757;-56
2021/04/01 12:52:02;;;;;;;28.75;14.98;;;;;;;23.98;32.49;99749.91;1850636;77;25576;-54
2021/04/01 12:54:38;;;;;;;25.37;14.33;;;;;;;23.93;32.97;99748.22;1778778;80;25356;-56
2021/04/01 12:57:08;;;;;;;25.10;14.45;;;;;;;24.05;33.66;99744.30;1799217;79;25281;-53
2021/04/01 13:02:21;;;;;;;29.10;15.32;;;;;;;24.27;32.67;99741.25;1849251;76;25425;-54
2021/04/01 13:05:00;;;;;;;24.43;13.90;;;;;;;24.27;32.44;99733.58;1819376;78;25265;-55
2021/04/01 13:07:52;;;;;;;24.70;15.10;;;;;;;24.32;33.07;99728.35;1819413;78;25741;-56
2021/04/01 13:12:40;;;;;;;23.83;13.50;;;;;;;24.31;31.78;99723.24;1819282;78;25565;-51
2021/04/01 13:15:09;;;;;;;21.33;13.38;;;;;;;24.36;32.27;99714.48;1819533;78;25439;-55
2021/04/01 13:17:38;;;;;;;24.32;14.23;;;;;;;24.46;32.27;99716.91;1819218;78;25526;-51
2021/04/01 13:20:07;;;;;;;24.80;13.75;;;;;;;24.56;31.36;99718.77;1819356;78;26123;-54
2021/04/01 13:25:16;;;;;;;26.95;14.58;;;;;;;24.35;30.72;99716.47;1739256;81;25366;-55
2021/04/01 13:27:46;;;;;;;26.25;15.23;;;;;;;24.20;30.74;99715.88;1738226;81;31928;-52
2021/04/01 13:30:15;;;;;;;;;;;;;;;23.93;30.71;99719.22;1757895;81;25383;-50
2021/04/01 13:33:01;;;;;;;28.83;14.35;;;;;;;23.75;31.09;99718.02;1739618;81;26920;-51
2021/04/01 13:35:30;;;;;;;28.67;16.27;;;;;;;23.59;31.04;99712.48;1763779;81;26208;-56
2021/04/01 13:37:57;;;;;;;39.65;21.35;;;;;;;23.55;31.07;99703.47;1764743;81;25545;-55
2021/04/01 13:40:23;;;;;;;27.50;16.65;;;;;;;23.48;30.88;99702.95;1764690;81;25526;-51
2021/04/01 13:43:00;;;;;;;;;;;;;;;23.39;30.00;99707.38;1767443;81;25549;-54
2021/04/01 13:45:26;;;;;;;17.57;10.95;;;;;;;23.29;30.83;99708.48;1764700;81;26259;-54
2021/04/01 13:47:58;;;;;;;22.85;10.32;;;;;;;23.20;30.63;99691.61;1764694;81;25727;-54
2021/04/01 13:50:28;;;;;;;17.67;10.03;;;;;;;23.17;30.52;99693.80;1764849;81;25664;-52
2021/04/01 13:53:03;;;;;;;21.87;12.95;;;;;;;23.11;28.68;99692.09;1764944;81;25493;-55
2021/04/01 14:11:28;;;;;;;27.15;13.78;;;;;;;22.18;30.09;99684.49;1819298;78;25595;-52
2021/04/01 14:13:56;;;;;;;23.47;15.10;;;;;;;22.12;30.45;99684.74;1819473;78;25431;-56
2021/04/01 14:16:22;;;;;;;27.60;15.13;;;;;;;22.07;30.52;99681.03;1819205;78;25946;-55
2021/04/01 14:18:50;;;;;;;26.50;17.87;;;;;;;21.96;30.53;99682.45;1819153;78;25484;-55
2021/04/01 14:21:21;;;;;;;32.63;17.90;;;;;;;21.83;30.25;99687.04;1819219;78;25242;-54
2021/04/01 14:23:51;;;;;;;24.52;14.07;;;;;;;21.71;30.67;99683.94;1819352;78;25265;-54
2021/04/01 14:28:51;;;;;;;25.10;16.00;;;;;;;21.41;31.01;99694.83;1827254;77;25751;-56
2021/04/01 14:31:19;;;;;;;27.37;14.87;;;;;;;21.20;31.02;99705.30;1823648;77;25787;-50
2021/04/01 14:33:48;;;;;;;29.42;14.70;;;;;;;21.04;31.10;99713.37;1794244;78;25492;-55
2021/04/01 14:36:18;;;;;;;28.17;14.90;;;;;;;20.86;31.65;99698.25;1787394;80;25544;-51
2021/04/01 14:38:46;;;;;;;25.55;16.75;;;;;;;20.61;32.34;99718.81;1787017;80;25570;-55
2021/04/01 14:44:19;;;;;;;28.85;18.37;;;;;;;20.25;34.39;99737.20;1768390;80;25580;-55
2021/04/01 14:46:46;;;;;;;32.73;18.62;;;;;;;19.93;35.62;99744.13;1768655;80;25531;-53
2021/04/01 14:49:13;;;;;;;31.42;18.35;;;;;;;19.72;36.08;99755.77;1779663;79;25496;-56
2021/04/01 14:51:42;;;;;;;30.45;17.92;;;;;;;19.57;36.76;99763.72;1765314;80;25564;-54
2021/04/01 14:54:13;;;;;;;29.50;18.32;;;;;;;19.46;38.31;99772.45;1805630;78;26232;-54
2021/04/01 14:56:47;;;;;;;31.65;16.48;;;;;;;19.34;39.23;99772.18;1816697;78;25551;-55
2021/04/01 15:01:56;;;;;;;32.23;17.67;;;;;;;19.39;39.73;99772.63;1861996;75;25431;-55
2021/04/01 15:04:24;;;;;;;30.57;18.37;;;;;;;19.32;39.99;99771.78;1845054;76;25584;-52
2021/04/01 15:06:53;;;;;;;34.70;19.87;;;;;;;19.31;40.12;99771.00;1843773;76;27102;-55
2021/04/01 15:09:21;;;;;;;34.03;18.82;;;;;;;19.25;40.37;99763.51;1857276;77;26121;-54
2021/04/01 15:11:50;;;;;;;34.20;19.27;;;;;;;19.18;40.45;99760.13;1862821;77;25361;-55
2021/04/01 15:14:17;;;;;;;35.70;21.80;;;;;;;19.15;40.54;99754.81;1862415;77;26186;-52
2021/04/01 15:16:45;;;;;;;34.58;20.72;;;;;;;19.09;40.71;99737.75;1855511;76;25574;-55
2021/04/01 15:19:13;;;;;;;34.67;20.48;;;;;;;19.00;40.87;99731.20;1832234;77;25876;-53
2021/04/01 15:21:41;;;;;;;33.65;20.72;;;;;;;18.83;41.32;99737.54;1858538;77;25633;-55
2021/04/01 15:24:12;;;;;;;36.08;21.60;;;;;;;18.68;41.56;99752.25;1859199;77;25573;-56
2021/04/01 15:26:42;;;;;;;36.45;22.32;;;;;;;18.55;42.19;99746.24;1859578;77;25507;-54
2021/04/01 15:29:11;;;;;;;43.30;22.58;;;;;;;18.44;42.47;99759.83;1859681;77;25498;-55
2021/04/01 15:31:40;;;;;;;38.67;22.05;;;;;;;18.34;42.59;99757.77;1859803;77;25684;-52
2021/04/01 15:34:08;;;;;;;40.23;22.65;;;;;;;18.24;42.79;99747.48;1859629;77;25514;-55
2021/04/01 15:36:35;;;;;;;32.53;21.37;;;;;;;18.17;42.87;99744.09;1859659;77;25479;-53
2021/04/01 15:39:05;;;;;;;35.40;21.62;;;;;;;18.13;42.80;99748.72;1859482;77;25476;-54
2021/04/01 15:41:31;;;;;;;35.30;21.20;;;;;;;18.07;42.88;99754.33;1859775;77;25267;-52
2021/04/01 15:43:58;;;;;;;38.55;22.40;;;;;;;18.02;43.43;99762.87;1859559;77;26046;-55
2021/04/01 15:46:25;;;;;;;38.08;23.05;;;;;;;17.92;43.32;99752.77;1859486;77;25743;-55
2021/04/01 15:48:53;;;;;;;38.50;22.75;;;;;;;17.88;43.49;99752.54;1859703;77;25684;-56
2021/04/01 15:51:19;;;;;;;39.80;22.00;;;;;;;17.78;43.48;99751.20;1859458;77;25531;-54
2021/04/01 15:53:46;;;;;;;45.35;23.52;;;;;;;17.72;43.34;99756.77;1859720;77;25343;-52
2021/04/01 15:56:14;;;;;;;34.78;19.92;;;;;;;17.66;43.30;99759.05;1859601;77;25694;-53
2021/04/01 15:58:42;;;;;;;38.45;22.73;;;;;;;17.56;43.00;99762.42;1859520;77;25535;-53
2021/04/01 16:01:09;;;;;;;35.90;19.55;;;;;;;17.48;42.83;99760.74;1852006;77;25507;-55
2021/04/01 16:03:36;;;;;;;39.73;20.62;;;;;;;17.42;42.85;99769.03;1846097;77;25511;-55
2021/04/01 16:06:05;;;;;;;34.60;20.57;;;;;;;17.32;42.67;99780.04;1846290;77;25498;-56
2021/04/01 16:08:32;;;;;;;37.83;20.05;;;;;;;17.22;42.74;99779.30;1846244;77;25751;-55
2021/04/01 16:10:59;;;;;;;34.78;19.60;;;;;;;17.11;42.70;99781.84;1846145;77;25354;-56
2021/04/01 16:13:27;;;;;;;38.85;21.80;;;;;;;16.99;42.73;99776.79;1842241;76;25405;-49
2021/04/01 16:15:54;;;;;;;39.58;20.90;;;;;;;16.89;43.00;99784.78;1813589;76;25320;-54
2021/04/01 16:18:21;;;;;;;35.43;18.80;;;;;;;16.84;43.15;99785.89;1846791;76;25648;-53
2021/04/01 16:20:48;;;;;;;32.70;19.05;;;;;;;16.75;43.11;99785.30;1819550;76;25745;-54
2021/04/01 16:23:17;;;;;;;33.28;18.20;;;;;;;16.63;43.22;99778.06;1812156;79;25416;-53
2021/04/01 16:25:44;;;;;;;36.23;18.90;;;;;;;16.56;43.25;99786.13;1797179;79;25448;-56
2021/04/01 16:28:12;;;;;;;32.00;18.10;;;;;;;16.50;43.33;99784.27;1801801;77;25543;-56
2021/04/01 16:30:39;;;;;;;32.83;17.48;;;;;;;16.42;43.49;99781.19;1830636;78;26118;-54
2021/04/01 16:33:13;;;;;;;34.88;17.95;;;;;;;16.37;43.71;99788.30;1831631;78;25886;-53
2021/04/01 16:35:41;;;;;;;30.00;17.70;;;;;;;16.31;43.91;99789.73;1831655;77;25477;-55
2021/04/01 16:38:08;;;;;;;39.15;17.75;;;;;;;16.25;43.89;99790.02;1831772;78;25437;-55
2021/04/01 16:40:36;;;;;;;32.73;18.27;;;;;;;16.19;43.84;99798.30;1831791;77;25516;-53
2021/04/01 16:43:04;;;;;;;31.55;17.52;;;;;;;16.11;43.85;99793.84;1831883;77;25499;-56
2021/04/01 16:45:31;;;;;;;33.00;17.50;;;;;;;16.03;43.72;99796.20;1831825;78;26585;-53
2021/04/01 16:47:58;;;;;;;31.00;16.57;;;;;;;15.96;43.80;99800.14;1830204;78;25441;-52
2021/04/01 16:50:26;;;;;;;28.55;16.40;;;;;;;15.85;43.60;99794.44;1831647;77;25513;-51
2021/04/01 16:53:17;;;;;;;30.80;15.98;;;;;;;15.76;43.64;99798.73;1831774;78;25472;-54
2021/04/01 16:55:49;;;;;;;33.48;15.98;;;;;;;15.67;43.66;99804.94;1831549;77;25425;-54
2021/04/01 16:58:24;;;;;;;30.25;15.10;;;;;;;15.57;43.75;99800.03;1831660;78;25756;-51
2021/04/01 17:00:53;;;;;;;32.50;16.05;;;;;;;15.49;43.88;99807.23;1830932;77;25254;-51
2021/04/01 17:03:20;;;;;;;30.52;16.15;;;;;;;15.41;43.97;99810.94;1831554;78;25386;-50
2021/04/01 17:05:48;;;;;;;30.75;14.75;;;;;;;15.34;44.05;99818.95;1831682;77;25519;-51
2021/04/01 17:08:15;;;;;;;31.02;15.53;;;;;;;15.26;44.19;99820.72;1831782;78;25292;-51
2021/04/01 17:10:42;;;;;;;27.87;15.40;;;;;;;15.19;44.30;99825.97;1821767;78;25770;-51
2021/04/01 17:13:10;;;;;;;30.43;15.00;;;;;;;15.12;44.48;99832.84;1812524;79;25479;-52
2021/04/01 17:15:38;;;;;;;27.22;13.80;;;;;;;15.07;44.65;99835.04;1812619;79;25503;-51
2021/04/01 17:18:05;;;;;;;28.25;15.00;;;;;;;14.98;44.65;99843.93;1812577;77;25248;-57
2021/04/01 17:20:32;;;;;;;30.45;15.43;;;;;;;14.90;44.81;99843.75;1863527;76;25326;-53
2021/04/01 17:22:59;;;;;;;29.48;13.50;;;;;;;14.84;44.81;99840.27;1865197;76;25841;-53
2021/04/01 17:25:26;;;;;;;25.00;11.20;;;;;;;14.78;45.07;99838.92;1864713;76;25292;-55
2021/04/01 17:27:52;;;;;;;35.03;12.28;;;;;;;14.70;45.02;99838.74;1864675;76;25558;-52
2021/04/01 17:30:21;;;;;;;23.85;10.45;;;;;;;14.65;45.12;99840.35;1863831;76;25623;-50
2021/04/01 17:32:48;;;;;;;21.30;8.40;;;;;;;14.58;45.02;99837.41;1864556;76;25671;-53
2021/04/01 17:35:16;;;;;;;16.20;7.83;;;;;;;14.53;45.12;99839.02;1863807;76;25875;-53
2021/04/01 17:37:43;;;;;;;18.92;8.40;;;;;;;14.48;45.16;99847.44;1819364;76;25470;-52
2021/04/01 17:40:11;;;;;;;15.95;7.08;;;;;;;14.42;45.17;99840.64;1828132;76;25436;-51
2021/04/01 17:42:38;;;;;;;11.75;6.40;;;;;;;14.36;45.20;99849.63;1831416;76;25679;-54
2021/04/01 17:45:07;;;;;;;19.15;8.43;;;;;;;14.27;45.31;99847.59;1804446;76;25507;-53
2021/04/01 17:47:33;;;;;;;21.68;7.95;;;;;;;14.20;45.47;99851.70;1797988;79;26614;-53
2021/04/01 17:50:00;;;;;;;14.18;6.58;;;;;;;14.11;45.71;99859.77;1797609;79;26145;-52
2021/04/01 17:52:28;;;;;;;15.63;7.47;;;;;;;14.04;46.29;99861.70;1797422;79;25634;-54
2021/04/01 17:54:55;;;;;;;17.02;9.25;;;;;;;13.99;46.28;99866.80;1769063;79;25574;-55
2021/04/01 17:57:22;;;;;;;21.65;10.40;;;;;;;13.94;46.72;99866.25;1797690;79;25501;-54
2021/04/01 18:02:36;;;;;;;21.87;12.05;;;;;;;13.84;47.29;99872.94;1840062;77;25280;-52
2021/04/01 18:24:16;;;;;;;28.25;14.75;;;;;;;13.40;50.43;99902.03;1860018;77;25350;-56
2021/04/01 18:29:23;;;;;;;28.23;15.98;;;;;;;13.33;50.94;99911.31;1826078;78;25524;-55
2021/04/01 18:31:57;;;;;;;27.25;15.72;;;;;;;13.28;51.45;99911.50;1826404;78;25465;-56
2021/04/01 18:39:31;;;;;;;28.67;16.87;;;;;;;13.18;52.88;99926.28;1778799;80;26702;-56
2021/04/01 18:42:04;;;;;;;33.20;17.27;;;;;;;13.14;52.99;99930.00;1777837;80;25331;-55
2021/04/01 18:44:33;;;;;;;27.85;15.75;;;;;;;13.10;53.15;99935.88;1778615;80;25469;-55
2021/04/01 18:47:09;;;;;;;31.55;16.93;;;;;;;13.05;53.41;99936.30;1778701;80;25501;-53
2021/04/01 18:52:22;;;;;;;31.62;17.85;;;;;;;13.03;53.62;99930.98;1888294;76;34574;-54
2021/04/01 18:57:17;;;;;;;;;;;;;;;12.92;54.13;99936.59;1862617;77;25838;-53
2021/04/01 19:02:20;;;;;;;32.60;17.37;;;;;;;12.89;54.51;99944.28;1849439;76;34572;-56
2021/04/01 19:07:38;;;;;;;39.95;18.35;;;;;;;12.75;55.27;99947.03;1849509;76;34939;-54
2021/04/01 19:23:53;;;;;;;31.73;20.70;;;;;;;12.08;57.42;99995.07;1849559;76;34979;-55
2021/04/01 19:26:21;;;;;;;34.90;20.52;;;;;;;11.91;57.78;99999.22;1819678;78;25477;-55
2021/04/01 19:28:51;;;;;;;31.20;20.57;;;;;;;11.84;58.11;99992.13;1819750;78;26621;-54
2021/04/01 19:31:17;;;;;;;32.65;20.37;;;;;;;11.74;58.32;100008.95;1819567;78;25254;-52
2021/04/01 19:33:46;;;;;;;31.20;19.10;;;;;;;11.66;58.68;99996.22;1819565;78;25437;-54
2021/04/01 19:36:14;;;;;;;37.58;23.35;;;;;;;11.55;58.70;100007.97;1819742;78;25424;-54
2021/04/01 19:38:49;;;;;;;46.90;27.37;;;;;;;11.45;59.75;100002.89;1819639;78;25517;-55
2021/04/01 19:41:20;;;;;;;34.58;22.00;;;;;;;11.35;60.08;100003.23;1787995;78;25752;-53
2021/04/01 19:43:49;;;;;;;36.25;20.50;;;;;;;11.27;60.57;100004.84;1819082;78;25839;-54
2021/04/01 19:46:17;;;;;;;32.98;20.72;;;;;;;11.15;61.35;100013.62;1819750;78;25509;-52
